mdhn weather

Juancho Enriquillo Airport
Barahona, Barahona Province, Dominican Republic

Public forecast

Using degrees Celsius for public forecast. Weather courtesy of forecast.io.

METAR (pilot weather report)

Closest report is Maria Montez International Airport, 24.3 nm (45.0 km) NNE. Retrieved 2019/03/25 19:00 UTC (43 minutes ago):

MDBH 251900Z 13016KT 9999 FEW028 SCT070 SCT300 31/19 Q1014

TAF (pilot weather forecast)

Forecast is more than 12 hours old.

Closest forecast is Maria Montez International Airport, 24.3 nm (45.0 km) NNE. Retrieved 2019/03/22 06:21 UTC (4 days ago):

TAF MDBH 220400Z 2206/2306 00000KT 9999 FEW018 BKN080 PROB30 2206/2212 8000 -RA FEW016CB SCT018 BKN070 BECMG 2210/2212 27004KT